Time;durP1;ratioP1;P1;durP2;ratioP2;P2;SDS_P1;SDS_P2;PMS_P1;PMS_P2;Temp;Humidity;BMP_temperature;BMP_pressure;BME280_temperature;BME280_humidity;BME280_pressure;Samples;Min_cycle;Max_cycle;Signal;HPM_P1;HPM_P2
2022/08/18 18:54:26;;;;;;;1999.90;999.90;;;;;;;;;;5149994;27;20414;-78
2022/08/18 18:56:55;;;;;;;1999.90;999.90;;;;;;;;;;5130769;27;20402;-80
2022/08/18 18:59:32;;;;;;;1999.90;999.90;;;;;;;;;;5135598;27;20393;-77
2022/08/18 19:02:06;;;;;;;1999.90;999.90;;;;;;;;;;5138455;27;20460;-79
2022/08/18 19:04:58;;;;;;;1999.90;999.90;;;;;;;;;;5143656;27;20399;-78
2022/08/18 19:07:29;;;;;;;1999.90;999.90;;;;;;;;;;5138028;27;20387;-76
2022/08/18 19:10:02;;;;;;;1999.90;999.90;;;;;;;;;;5130181;27;20580;-79
2022/08/18 19:12:33;;;;;;;1999.90;999.90;;;;;;;;;;5138209;27;20391;-79
2022/08/18 19:15:07;;;;;;;1999.90;999.90;;;;;;;;;;5131635;27;20436;-76
2022/08/18 19:17:37;;;;;;;1999.90;999.90;;;;;;;;;;5132567;27;20860;-76
2022/08/18 19:20:06;;;;;;;1999.90;999.90;;;;;;;;;;5117757;27;20909;-75
2022/08/18 19:22:37;;;;;;;1999.90;999.90;;;;;;;;;;5138176;27;20392;-75
2022/08/18 19:25:12;;;;;;;1999.90;999.90;;;;;;;;;;5136570;27;20420;-75
2022/08/18 19:27:42;;;;;;;1999.90;999.90;;;;;;;;;;5134831;27;21231;-75
2022/08/18 19:30:12;;;;;;;1999.90;999.90;;;;;;;;;;5135540;27;20407;-75
2022/08/18 19:32:42;;;;;;;1999.90;999.90;;;;;;;;;;5137684;27;20389;-75
2022/08/18 19:35:13;;;;;;;1999.90;999.90;;;;;;;;;;5142419;27;20552;-73
2022/08/18 19:37:52;;;;;;;1999.90;999.90;;;;;;;;;;5132481;27;20400;-73
2022/08/18 19:40:24;;;;;;;1999.90;999.90;;;;;;;;;;5131805;27;20408;-74
2022/08/18 19:42:54;;;;;;;1999.90;999.90;;;;;;;;;;5136680;27;20907;-74
2022/08/18 19:45:28;;;;;;;1999.90;999.90;;;;;;;;;;5117205;27;20407;-74
2022/08/18 19:48:00;;;;;;;1999.90;999.90;;;;;;;;;;5136997;27;20409;-74
2022/08/18 19:50:31;;;;;;;1999.90;999.90;;;;;;;;;;5129321;27;20418;-74
2022/08/18 19:53:17;;;;;;;1999.90;999.90;;;;;;;;;;5118893;27;20405;-74
2022/08/18 19:55:54;;;;;;;1999.90;999.90;;;;;;;;;;5123888;27;20406;-74
2022/08/18 19:58:36;;;;;;;1999.90;999.90;;;;;;;;;;5129803;27;20392;-73
2022/08/18 20:01:05;;;;;;;1999.90;999.90;;;;;;;;;;5134314;27;20433;-74
2022/08/18 20:03:55;;;;;;;1999.90;999.90;;;;;;;;;;5132317;27;20470;-73
2022/08/18 20:06:33;;;;;;;1999.90;999.90;;;;;;;;;;5124695;27;20418;-73
2022/08/18 20:09:17;;;;;;;1999.90;999.90;;;;;;;;;;5121813;27;20397;-75
2022/08/18 20:11:52;;;;;;;1999.90;999.90;;;;;;;;;;5119242;27;20391;-74
2022/08/18 20:14:20;;;;;;;1999.90;999.90;;;;;;;;;;5125293;27;20417;-75
2022/08/18 20:17:03;;;;;;;1999.90;999.90;;;;;;;;;;5131321;27;20421;-76
2022/08/18 20:19:39;;;;;;;1999.90;999.90;;;;;;;;;;5127437;27;20399;-76
2022/08/18 20:22:09;;;;;;;1999.90;999.90;;;;;;;;;;5125480;27;20403;-75
2022/08/18 20:24:48;;;;;;;1999.90;999.90;;;;;;;;;;5125187;27;20530;-75
2022/08/18 20:27:33;;;;;;;1999.90;999.90;;;;;;;;;;5122635;27;20498;-75
2022/08/18 20:30:29;;;;;;;1999.90;999.90;;;;;;;;;;5100476;27;21241;-76
2022/08/18 20:33:07;;;;;;;1999.90;999.90;;;;;;;;;;5125780;27;20483;-77
2022/08/18 20:35:37;;;;;;;1999.90;999.90;;;;;;;;;;5119694;27;20483;-73
2022/08/18 20:38:11;;;;;;;1999.90;999.90;;;;;;;;;;5123671;27;20970;-73
2022/08/18 20:40:41;;;;;;;1999.90;999.90;;;;;;;;;;5115664;27;20402;-73
2022/08/18 20:43:25;;;;;;;1999.90;999.90;;;;;;;;;;5117772;27;20399;-74
2022/08/18 20:45:56;;;;;;;1999.90;999.90;;;;;;;;;;5112538;27;21536;-74
2022/08/18 20:48:37;;;;;;;1999.90;999.90;;;;;;;;;;5125659;27;20407;-73
2022/08/18 20:51:09;;;;;;;1999.90;999.90;;;;;;;;;;5107505;27;20401;-73
2022/08/18 20:53:58;;;;;;;1999.90;999.90;;;;;;;;;;5107275;27;20423;-73
2022/08/18 20:56:46;;;;;;;1999.90;999.90;;;;;;;;;;5104930;27;20446;-73
2022/08/18 20:59:19;;;;;;;1999.90;999.90;;;;;;;;;;5100463;27;20415;-74
2022/08/18 21:01:58;;;;;;;1999.90;999.90;;;;;;;;;;5110900;27;20934;-73
2022/08/18 21:04:46;;;;;;;1999.90;999.90;;;;;;;;;;5094587;27;20399;-74
2022/08/18 21:07:25;;;;;;;1999.90;999.90;;;;;;;;;;5113931;27;20385;-73
2022/08/18 21:10:06;;;;;;;1999.90;999.90;;;;;;;;;;5111013;27;20506;-74
2022/08/18 21:12:46;;;;;;;1999.90;999.90;;;;;;;;;;5111354;27;20427;-71
2022/08/18 21:15:22;;;;;;;1999.90;999.90;;;;;;;;;;5118904;27;20474;-71
2022/08/18 21:17:56;;;;;;;1999.90;999.90;;;;;;;;;;5112161;27;20393;-72
2022/08/18 21:20:24;;;;;;;1999.90;999.90;;;;;;;;;;5111621;27;20568;-71
2022/08/18 21:23:01;;;;;;;1999.90;999.90;;;;;;;;;;5113549;27;20399;-71
2022/08/18 21:25:31;;;;;;;1999.90;999.90;;;;;;;;;;5113488;27;20907;-71
2022/08/18 21:28:01;;;;;;;1999.90;999.90;;;;;;;;;;5111933;27;20453;-71
2022/08/18 21:30:30;;;;;;;1999.90;999.90;;;;;;;;;;5112953;27;20419;-71
2022/08/18 21:32:58;;;;;;;1999.90;999.90;;;;;;;;;;5118074;27;20368;-73
2022/08/18 21:35:27;;;;;;;1999.90;999.90;;;;;;;;;;5116875;27;20434;-71
2022/08/18 21:37:59;;;;;;;1999.90;999.90;;;;;;;;;;5116346;27;20534;-70
2022/08/18 21:40:35;;;;;;;1999.90;999.90;;;;;;;;;;5109622;27;20438;-71
2022/08/18 21:43:03;;;;;;;1999.90;999.90;;;;;;;;;;5112344;27;20387;-72
2022/08/18 21:45:35;;;;;;;1999.90;999.90;;;;;;;;;;5110382;27;20894;-71
2022/08/18 21:48:04;;;;;;;1999.90;999.90;;;;;;;;;;5116521;27;20392;-71
2022/08/18 21:50:34;;;;;;;1999.90;999.90;;;;;;;;;;5118365;27;20416;-71
2022/08/18 21:53:04;;;;;;;1999.90;999.90;;;;;;;;;;5110480;27;20932;-70
2022/08/18 21:55:33;;;;;;;1999.90;999.90;;;;;;;;;;5112739;27;20391;-71
2022/08/18 21:58:04;;;;;;;1999.90;999.90;;;;;;;;;;5111217;27;20915;-70
2022/08/18 22:00:34;;;;;;;1999.90;999.90;;;;;;;;;;5110970;27;20407;-71
2022/08/18 22:03:11;;;;;;;1999.90;999.90;;;;;;;;;;5124537;27;20866;-71
2022/08/18 22:05:40;;;;;;;1999.90;999.90;;;;;;;;;;5119465;27;20405;-71
2022/08/18 22:08:28;;;;;;;1999.90;999.90;;;;;;;;;;5111670;27;20411;-71
2022/08/18 22:14:24;;;;;;;1999.90;999.90;;;;;;;;;;5113449;27;20395;-71
2022/08/18 22:17:14;;;;;;;1999.90;999.90;;;;;;;;;;5111323;27;20401;-71
2022/08/18 22:19:42;;;;;;;1999.90;999.90;;;;;;;;;;5110492;27;20389;-72
2022/08/18 22:24:53;;;;;;;1999.90;999.90;;;;;;;;;;5104815;27;20379;-72
2022/08/18 22:27:23;;;;;;;1999.90;999.90;;;;;;;;;;5110461;27;20384;-72
2022/08/18 22:29:52;;;;;;;1999.90;999.90;;;;;;;;;;5093706;27;20398;-72
2022/08/18 22:32:21;;;;;;;1999.90;999.90;;;;;;;;;;5116522;27;20413;-71
2022/08/18 22:34:49;;;;;;;1999.90;999.90;;;;;;;;;;5112274;27;20806;-72
2022/08/18 22:37:18;;;;;;;1999.90;999.90;;;;;;;;;;5113982;27;20417;-73
2022/08/18 22:39:48;;;;;;;1999.90;999.90;;;;;;;;;;5110925;27;20415;-72
2022/08/18 22:42:17;;;;;;;1999.90;999.90;;;;;;;;;;5117909;27;20831;-72
2022/08/18 22:44:45;;;;;;;1999.90;999.90;;;;;;;;;;5105083;27;20416;-72
2022/08/18 22:47:13;;;;;;;1999.90;999.90;;;;;;;;;;5109597;27;20482;-71
2022/08/18 22:49:42;;;;;;;1999.90;999.90;;;;;;;;;;5113111;27;20420;-72
2022/08/18 22:52:14;;;;;;;1999.90;999.90;;;;;;;;;;5106196;27;20413;-71
2022/08/18 22:54:42;;;;;;;1999.90;999.90;;;;;;;;;;5089076;27;20830;-72
2022/08/18 22:57:10;;;;;;;1999.90;999.90;;;;;;;;;;5113367;27;20674;-71
2022/08/18 22:59:40;;;;;;;1999.90;999.90;;;;;;;;;;5116503;27;20587;-71
2022/08/18 23:02:10;;;;;;;1999.90;999.90;;;;;;;;;;5106966;27;20399;-72
2022/08/18 23:04:38;;;;;;;1999.90;999.90;;;;;;;;;;5112649;27;20397;-72
2022/08/18 23:07:07;;;;;;;1999.90;999.90;;;;;;;;;;5118884;27;20240;-72
2022/08/18 23:09:36;;;;;;;1999.90;999.90;;;;;;;;;;5109903;27;20407;-71
2022/08/18 23:12:06;;;;;;;1999.90;999.90;;;;;;;;;;5116456;27;20426;-72
2022/08/18 23:14:34;;;;;;;1999.90;999.90;;;;;;;;;;5120195;27;20406;-72
2022/08/18 23:17:02;;;;;;;1999.90;999.90;;;;;;;;;;5103326;27;20401;-71
2022/08/18 23:19:31;;;;;;;1999.90;999.90;;;;;;;;;;5119810;27;20407;-71
2022/08/18 23:21:59;;;;;;;1999.90;999.90;;;;;;;;;;5126715;27;20405;-71
2022/08/18 23:24:28;;;;;;;1999.90;999.90;;;;;;;;;;5115980;27;20230;-71
2022/08/18 23:26:56;;;;;;;1999.90;999.90;;;;;;;;;;5121893;27;20896;-72
2022/08/18 23:29:24;;;;;;;1999.90;999.90;;;;;;;;;;5116679;27;20395;-71
2022/08/18 23:31:52;;;;;;;1999.90;999.90;;;;;;;;;;5109317;27;20405;-71
2022/08/18 23:34:21;;;;;;;1999.90;999.90;;;;;;;;;;5112024;27;20392;-70
2022/08/18 23:36:54;;;;;;;1999.90;999.90;;;;;;;;;;5117556;27;20418;-70
2022/08/18 23:39:22;;;;;;;1999.90;999.90;;;;;;;;;;5118560;27;20398;-70
2022/08/18 23:41:51;;;;;;;1999.90;999.90;;;;;;;;;;5129879;27;20397;-71
2022/08/18 23:44:19;;;;;;;1999.90;999.90;;;;;;;;;;5121961;27;20394;-70
2022/08/18 23:46:50;;;;;;;1999.90;999.90;;;;;;;;;;5118987;27;20417;-70
2022/08/18 23:49:18;;;;;;;1999.90;999.90;;;;;;;;;;5124456;27;20937;-71
2022/08/18 23:51:47;;;;;;;1999.90;999.90;;;;;;;;;;5115289;27;20407;-71
2022/08/18 23:54:17;;;;;;;1999.90;999.90;;;;;;;;;;5118791;27;20376;-71
2022/08/18 23:56:44;;;;;;;1999.90;999.90;;;;;;;;;;5121748;27;21442;-71
2022/08/18 23:59:14;;;;;;;1999.90;999.90;;;;;;;;;;5130590;27;20919;-71
